Time;durP1;ratioP1;P1;durP2;ratioP2;P2;SDS_P1;SDS_P2;PMS_P1;PMS_P2;Temp;Humidity;BMP_temperature;BMP_pressure;BME280_temperature;BME280_humidity;BME280_pressure;Samples;Min_cycle;Max_cycle;Signal;HPM_P1;HPM_P2
2023/12/29 00:00:37;;;;;;;27.30;16.35;;;;;;;1.60;88.52;100775.41;5049036;28;20418;-79
2023/12/29 00:03:03;;;;;;;26.63;15.68;;;;;;;1.52;87.83;100749.00;5031328;28;20029;-79
2023/12/29 00:05:28;;;;;;;26.77;15.88;;;;;;;1.16;90.89;100775.06;5050940;28;20131;-79
2023/12/29 00:07:54;;;;;;;30.25;16.08;;;;;;;1.37;90.09;100758.34;5031169;28;20047;-79
2023/12/29 00:10:19;;;;;;;31.15;17.80;;;;;;;1.37;90.53;100751.28;5030997;28;20036;-79
2023/12/29 00:12:45;;;;;;;27.38;17.33;;;;;;;1.22;91.48;100742.16;5049077;28;20868;-79
2023/12/29 00:15:10;;;;;;;28.30;15.10;;;;;;;1.32;93.22;100773.69;5033252;28;20024;-79
2023/12/29 00:17:37;;;;;;;25.30;14.75;;;;;;;1.65;91.60;100774.97;5030973;28;20033;-79
2023/12/29 00:20:04;;;;;;;25.98;16.88;;;;;;;1.64;92.13;100769.88;5031086;28;20206;-79
2023/12/29 00:22:29;;;;;;;30.02;18.08;;;;;;;1.72;90.53;100744.53;5048430;28;20032;-79
2023/12/29 00:24:55;;;;;;;28.70;17.35;;;;;;;2.03;89.08;100752.13;5031672;28;20025;-79
2023/12/29 00:27:21;;;;;;;30.13;16.80;;;;;;;2.04;89.89;100787.16;5050178;28;20063;-79
2023/12/29 00:29:46;;;;;;;27.23;14.13;;;;;;;1.44;88.07;100788.31;5048971;28;20024;-79
2023/12/29 00:32:12;;;;;;;23.80;14.20;;;;;;;0.34;90.25;100752.66;5030761;28;20029;-79
2023/12/29 00:34:37;;;;;;;26.23;14.65;;;;;;;-0.08;91.84;100741.50;5048199;28;20033;-79
2023/12/29 00:37:03;;;;;;;27.77;14.95;;;;;;;-0.05;93.57;100768.31;5050886;28;20108;-79
2023/12/29 00:39:29;;;;;;;28.33;15.68;;;;;;;0.61;91.74;100774.81;5048405;28;20036;-79
2023/12/29 00:41:58;;;;;;;22.65;14.52;;;;;;;1.09;89.33;100795.00;5048095;28;20036;-79
2023/12/29 00:44:23;;;;;;;26.17;15.63;;;;;;;0.91;91.46;100770.41;5048475;28;20025;-79
2023/12/29 00:46:49;;;;;;;28.92;16.10;;;;;;;0.96;93.63;100786.56;5032889;28;20094;-79
2023/12/29 00:49:15;;;;;;;31.88;16.77;;;;;;;0.97;93.13;100783.00;5029958;28;20493;-80
2023/12/29 00:51:43;;;;;;;31.67;17.00;;;;;;;1.04;92.23;100773.56;5048196;28;20478;-79
2023/12/29 00:54:09;;;;;;;28.35;17.20;;;;;;;0.97;93.81;100769.84;5029983;28;20025;-79
2023/12/29 00:56:34;;;;;;;28.45;17.48;;;;;;;1.35;92.79;100774.25;5032311;28;20033;-79
2023/12/29 00:58:59;;;;;;;30.92;17.90;;;;;;;1.26;94.14;100761.13;5048200;28;20032;-79
2023/12/29 01:01:25;;;;;;;34.90;17.17;;;;;;;1.29;93.32;100755.56;5047788;28;20082;-79
2023/12/29 01:03:54;;;;;;;30.27;16.58;;;;;;;1.41;92.71;100751.81;5048055;28;20024;-79
2023/12/29 01:06:19;;;;;;;29.35;16.52;;;;;;;0.97;96.08;100743.59;5050527;28;20045;-79
2023/12/29 01:08:45;;;;;;;28.60;15.77;;;;;;;0.67;96.81;100737.50;5030061;28;20024;-79
2023/12/29 01:11:10;;;;;;;26.05;15.13;;;;;;;0.53;96.05;100751.91;5030020;28;20037;-79
2023/12/29 01:13:36;;;;;;;26.77;15.55;;;;;;;0.69;93.57;100755.75;5047876;28;20078;-79
2023/12/29 01:16:01;;;;;;;27.98;15.95;;;;;;;1.02;90.46;100741.34;5049712;28;20043;-79
2023/12/29 01:18:26;;;;;;;27.40;16.23;;;;;;;1.27;90.13;100747.00;5048209;28;20105;-79
2023/12/29 01:20:52;;;;;;;28.80;17.10;;;;;;;1.00;92.36;100717.88;5029810;28;20029;-79
2023/12/29 01:23:18;;;;;;;36.67;20.65;;;;;;;1.18;94.89;100725.03;5047779;28;20477;-79
2023/12/29 01:25:43;;;;;;;37.40;21.67;;;;;;;1.21;94.30;100716.88;5030219;28;20078;-79
2023/12/29 01:28:08;;;;;;;41.75;22.65;;;;;;;1.26;93.43;100713.81;5047837;28;20029;-79
2023/12/29 01:30:34;;;;;;;40.65;22.92;;;;;;;1.41;93.57;100720.28;5048495;28;20025;-79
2023/12/29 01:32:59;;;;;;;42.55;23.30;;;;;;;1.30;95.17;100718.63;5047924;28;20449;-79
2023/12/29 01:35:25;;;;;;;45.90;24.05;;;;;;;1.46;93.44;100712.78;5051275;28;20081;-79
2023/12/29 01:37:50;;;;;;;41.65;23.02;;;;;;;1.37;91.71;100682.13;5047911;28;20037;-80
2023/12/29 01:40:16;;;;;;;38.65;23.15;;;;;;;1.28;92.44;100696.09;5048894;28;20029;-79
2023/12/29 01:42:41;;;;;;;38.60;23.13;;;;;;;1.30;92.76;100712.56;5049700;28;20060;-79
2023/12/29 01:45:23;;;;;;;35.78;22.02;;;;;;;1.59;91.48;100705.41;5051188;28;20046;-79
2023/12/29 01:47:49;;;;;;;38.80;21.33;;;;;;;1.47;92.23;100706.56;5044874;28;20489;-79
2023/12/29 01:50:16;;;;;;;36.17;21.55;;;;;;;1.45;92.55;100702.41;5062317;28;20032;-79
2023/12/29 01:52:43;;;;;;;39.55;22.52;;;;;;;1.27;92.41;100689.19;5061150;28;20027;-79
2023/12/29 01:55:12;;;;;;;43.72;24.00;;;;;;;1.33;92.33;100696.53;5061186;28;20413;-79
2023/12/29 01:57:38;;;;;;;36.08;21.17;;;;;;;1.19;91.81;100661.03;5079515;28;20021;-79
2023/12/29 02:00:05;;;;;;;39.85;22.20;;;;;;;1.69;89.93;100696.66;5080921;28;20031;-79
2023/12/29 02:02:32;;;;;;;37.03;21.40;;;;;;;1.49;90.37;100702.00;5081824;28;20024;-78
2023/12/29 02:04:58;;;;;;;41.58;21.13;;;;;;;1.35;91.18;100700.66;5078846;28;20028;-78
2023/12/29 02:07:23;;;;;;;36.03;21.60;;;;;;;0.96;93.22;100684.13;5062155;28;20025;-79
2023/12/29 02:09:51;;;;;;;35.70;21.15;;;;;;;1.22;92.98;100683.53;5058937;28;20089;-79
2023/12/29 02:12:17;;;;;;;36.60;20.50;;;;;;;0.66;95.84;100698.28;5059937;28;20095;-78
2023/12/29 02:14:42;;;;;;;45.97;22.23;;;;;;;0.54;95.78;100689.72;5062142;28;20028;-78
2023/12/29 02:17:20;;;;;;;34.10;20.65;;;;;;;0.35;98.60;100695.81;5058191;28;20170;-79
2023/12/29 02:19:49;;;;;;;36.65;21.00;;;;;;;0.26;99.26;100684.31;5040021;28;20133;-79
2023/12/29 02:22:14;;;;;;;;;;;;;;;0.89;96.21;100696.19;5036806;28;20127;-79
2023/12/29 02:24:44;;;;;;;43.70;20.83;;;;;;;0.91;94.62;100699.50;5034351;28;20004;-79
2023/12/29 02:27:28;;;;;;;119.65;42.10;;;;;;;1.24;93.24;100697.38;5033438;28;20506;-79
2023/12/29 02:30:11;;;;;;;63.88;28.42;;;;;;;1.16;92.85;100700.69;5033140;28;20017;-79
2023/12/29 02:32:40;;;;;;;36.28;18.65;;;;;;;1.09;92.91;100682.06;5032703;28;20032;-79
2023/12/29 02:35:10;;;;;;;32.47;17.48;;;;;;;1.19;90.91;100701.25;5032358;28;20529;-79
2023/12/29 02:37:37;;;;;;;41.03;21.38;;;;;;;1.03;91.52;100693.13;5052715;28;20041;-79
2023/12/29 02:40:03;;;;;;;30.63;18.30;;;;;;;0.91;91.67;100665.38;5049975;28;20025;-79
2023/12/29 02:42:29;;;;;;;29.52;17.02;;;;;;;1.02;92.01;100672.25;5049962;28;20029;-79
2023/12/29 02:44:54;;;;;;;21.83;13.32;;;;;;;1.25;90.64;100683.25;5049623;28;20060;-79
2023/12/29 02:47:21;;;;;;;20.85;13.05;;;;;;;0.78;92.44;100666.50;5033868;28;20033;-79
2023/12/29 02:49:46;;;;;;;24.80;15.10;;;;;;;0.53;92.49;100695.94;5049765;28;20508;-79
2023/12/29 02:52:12;;;;;;;21.90;12.18;;;;;;;-0.41;96.47;100662.22;5031520;28;20033;-79
2023/12/29 02:54:37;;;;;;;24.42;12.85;;;;;;;-0.49;97.45;100657.66;5030781;28;20405;-79
2023/12/29 02:57:03;;;;;;;24.33;12.85;;;;;;;-0.46;95.97;100665.25;5048344;28;20078;-78
2023/12/29 02:59:28;;;;;;;26.27;14.43;;;;;;;-0.06;93.76;100672.28;5031348;28;20442;-79
2023/12/29 03:01:53;;;;;;;28.45;15.30;;;;;;;-0.11;93.72;100665.78;5049238;28;20132;-79
2023/12/29 03:04:19;;;;;;;32.22;16.60;;;;;;;0.17;93.03;100678.09;5049109;28;20056;-79
2023/12/29 03:06:44;;;;;;;32.70;17.65;;;;;;;0.21;93.56;100689.16;5010972;28;1174335;-79
2023/12/29 03:09:10;;;;;;;29.92;17.35;;;;;;;-0.13;94.27;100655.41;5032415;28;20598;-78
2023/12/29 03:11:35;;;;;;;33.35;19.05;;;;;;;0.18;94.66;100657.94;5049878;28;20067;-80
2023/12/29 03:14:01;;;;;;;30.20;18.33;;;;;;;0.18;95.22;100663.19;5031995;28;20025;-79
2023/12/29 03:16:26;;;;;;;34.88;19.15;;;;;;;0.29;95.35;100670.94;5032004;28;20029;-79
2023/12/29 03:18:51;;;;;;;36.85;19.65;;;;;;;0.42;94.12;100654.09;5031766;28;20079;-79
2023/12/29 03:21:17;;;;;;;36.35;18.23;;;;;;;0.26;95.20;100660.69;5031599;28;20408;-79
2023/12/29 03:23:42;;;;;;;32.15;19.35;;;;;;;0.65;93.18;100680.88;5049446;28;20070;-79
2023/12/29 03:26:07;;;;;;;31.95;17.67;;;;;;;0.04;96.17;100666.19;5049051;28;20041;-80
2023/12/29 03:28:33;;;;;;;33.55;18.33;;;;;;;-0.27;99.18;100642.69;5049700;28;20537;-79
2023/12/29 03:30:58;;;;;;;34.03;18.13;;;;;;;0.27;95.63;100656.31;5049591;28;20056;-79
2023/12/29 03:33:24;;;;;;;28.25;18.10;;;;;;;0.44;94.23;100652.16;5031741;28;20028;-79
2023/12/29 03:35:49;;;;;;;34.38;17.55;;;;;;;0.55;92.06;100650.22;5049573;28;20142;-79
2023/12/29 03:38:14;;;;;;;33.15;17.02;;;;;;;0.20;92.79;100650.75;5051986;28;20504;-79
2023/12/29 03:40:40;;;;;;;35.58;17.75;;;;;;;-0.57;95.87;100619.97;5049374;28;20039;-79
2023/12/29 03:43:05;;;;;;;37.17;18.05;;;;;;;-0.81;96.77;100629.81;5049667;28;20417;-79
2023/12/29 03:45:31;;;;;;;41.90;21.80;;;;;;;-0.31;95.29;100642.13;5031516;28;20405;-79
2023/12/29 03:47:56;;;;;;;43.03;24.42;;;;;;;-0.03;94.31;100652.81;5045079;28;20112;-79
2023/12/29 03:50:22;;;;;;;42.63;22.30;;;;;;;-0.58;97.67;100627.00;5069246;28;20075;-79
2023/12/29 03:52:47;;;;;;;41.10;19.98;;;;;;;-0.33;96.95;100648.47;5051071;28;20511;-80
2023/12/29 03:55:14;;;;;;;54.28;29.23;;;;;;;-0.67;99.29;100640.91;5069094;28;20470;-79
2023/12/29 03:57:40;;;;;;;48.55;21.85;;;;;;;-0.29;96.96;100636.75;5055202;28;20029;-79
2023/12/29 04:00:06;;;;;;;41.38;19.75;;;;;;;-0.11;97.13;100648.22;5049361;28;20094;-79
2023/12/29 04:02:31;;;;;;;36.45;19.60;;;;;;;-0.01;95.37;100617.63;5049135;28;20083;-79
2023/12/29 04:05:01;;;;;;;41.33;20.13;;;;;;;0.65;92.54;100665.94;5030994;28;20080;-79
2023/12/29 04:07:26;;;;;;;36.13;19.83;;;;;;;0.53;92.29;100646.91;5036326;28;20489;-80
2023/12/29 04:09:51;;;;;;;42.50;23.15;;;;;;;0.51;92.36;100654.09;5049058;28;20124;-80
2023/12/29 04:12:17;;;;;;;41.15;23.42;;;;;;;0.55;92.32;100659.88;5031087;28;20035;-80
2023/12/29 04:14:42;;;;;;;40.78;22.60;;;;;;;0.56;91.96;100651.88;5030889;28;20040;-80
2023/12/29 04:17:13;;;;;;;44.53;24.35;;;;;;;0.55;92.23;100644.13;5048701;28;21101;-79
2023/12/29 04:19:40;;;;;;;40.95;23.65;;;;;;;0.49;91.52;100636.81;5030464;28;20047;-79
2023/12/29 04:22:05;;;;;;;46.38;26.08;;;;;;;0.01;94.95;100630.59;5049228;28;20478;-79
2023/12/29 04:24:31;;;;;;;55.97;30.83;;;;;;;0.25;94.98;100632.00;5048724;28;20033;-79
2023/12/29 04:26:57;;;;;;;52.47;28.80;;;;;;;0.26;92.40;100597.75;5051358;28;20056;-79
2023/12/29 04:29:22;;;;;;;53.35;28.98;;;;;;;0.32;92.76;100594.56;5030706;28;20040;-80
2023/12/29 04:31:48;;;;;;;60.28;31.63;;;;;;;0.63;92.62;100639.00;5048677;28;20027;-79
2023/12/29 04:34:13;;;;;;;58.75;32.03;;;;;;;0.44;93.44;100610.16;5029990;28;20051;-79
2023/12/29 04:36:38;;;;;;;63.58;31.27;;;;;;;0.51;90.83;100613.88;5050962;28;20089;-78
2023/12/29 04:39:04;;;;;;;48.83;28.50;;;;;;;0.69;90.20;100638.44;5030441;28;20475;-78
2023/12/29 04:41:29;;;;;;;54.22;28.77;;;;;;;0.46;91.49;100634.47;5048817;28;20037;-79
2023/12/29 04:43:55;;;;;;;48.15;27.65;;;;;;;0.56;92.62;100619.56;5048509;28;20044;-80
2023/12/29 04:46:20;;;;;;;47.92;27.83;;;;;;;0.70;93.61;100621.75;5048248;28;20027;-80
2023/12/29 04:48:46;;;;;;;47.15;26.35;;;;;;;0.65;93.82;100613.44;5030154;28;20044;-80
2023/12/29 04:51:11;;;;;;;47.20;29.17;;;;;;;0.54;94.38;100600.50;5030304;28;20067;-80
2023/12/29 04:53:36;;;;;;;41.60;27.75;;;;;;;0.56;94.20;100588.88;5030423;28;20121;-79
2023/12/29 04:56:02;;;;;;;42.40;23.65;;;;;;;0.75;93.24;100598.50;5048225;28;20025;-80
2023/12/29 04:58:27;;;;;;;37.33;20.67;;;;;;;0.65;94.43;100612.63;5050593;28;20040;-78
2023/12/29 05:00:53;;;;;;;32.90;18.92;;;;;;;0.15;98.43;100627.56;5047736;28;20125;-79
2023/12/29 05:03:18;;;;;;;27.17;15.38;;;;;;;-0.09;100.00;100621.88;5047921;28;20036;-79
2023/12/29 05:05:43;;;;;;;27.55;16.55;;;;;;;-0.20;100.00;100596.63;5029742;28;20128;-79
2023/12/29 05:08:09;;;;;;;25.15;16.08;;;;;;;0.04;100.00;100619.00;5029873;28;20029;-80
2023/12/29 05:10:36;;;;;;;29.13;16.83;;;;;;;0.01;100.00;100622.72;5047910;28;20664;-79
2023/12/29 05:13:02;;;;;;;30.60;17.65;;;;;;;-0.01;100.00;100607.13;5047832;28;20402;-79
2023/12/29 05:15:27;;;;;;;34.40;21.13;;;;;;;-0.18;100.00;100592.09;5029924;28;20524;-79
2023/12/29 05:17:52;;;;;;;31.92;18.98;;;;;;;-0.18;100.00;100609.59;5029518;28;20033;-79
2023/12/29 05:20:18;;;;;;;38.95;20.85;;;;;;;-0.01;100.00;100625.47;5047794;28;20044;-79
2023/12/29 05:22:43;;;;;;;48.35;23.23;;;;;;;-0.20;100.00;100614.97;5047658;28;20033;-79
2023/12/29 05:25:09;;;;;;;42.40;21.23;;;;;;;-0.18;100.00;100599.94;5029853;28;20499;-79
2023/12/29 05:27:34;;;;;;;60.28;19.70;;;;;;;0.19;100.00;100636.81;5032114;28;20036;-79
2023/12/29 05:30:00;;;;;;;32.85;16.92;;;;;;;0.12;100.00;100603.41;5047409;28;20683;-79
2023/12/29 05:32:26;;;;;;;32.30;16.52;;;;;;;0.28;100.00;100643.03;5029532;28;20025;-79
2023/12/29 05:34:52;;;;;;;30.55;16.73;;;;;;;0.32;100.00;100644.41;5029579;28;20028;-80
2023/12/29 05:37:17;;;;;;;30.30;16.85;;;;;;;0.01;100.00;100641.09;5032132;28;20035;-80
2023/12/29 05:39:42;;;;;;;30.15;17.77;;;;;;;-0.20;100.00;100638.56;5047227;28;20037;-79
2023/12/29 05:42:08;;;;;;;40.78;22.58;;;;;;;-0.39;100.00;100620.16;5029405;28;20040;-79
2023/12/29 05:44:36;;;;;;;32.05;16.92;;;;;;;-0.04;97.70;100617.06;5047573;28;20067;-79
2023/12/29 05:47:02;;;;;;;26.42;15.38;;;;;;;-0.46;99.29;100619.88;5049919;28;20024;-79
2023/12/29 05:49:27;;;;;;;28.92;16.70;;;;;;;-0.40;96.54;100611.50;5047164;28;20032;-79
2023/12/29 05:51:53;;;;;;;47.40;25.88;;;;;;;-0.36;94.96;100623.34;5047390;28;20029;-79
2023/12/29 05:54:18;;;;;;;54.50;35.33;;;;;;;-0.41;93.50;100613.28;5029491;28;20039;-79
2023/12/29 05:56:44;;;;;;;50.42;30.45;;;;;;;-0.75;95.45;100627.66;5047570;28;20483;-79
2023/12/29 05:59:09;;;;;;;40.55;23.88;;;;;;;-1.17;97.49;100596.28;5049767;28;20144;-79
2023/12/29 06:01:34;;;;;;;36.17;19.50;;;;;;;-1.45;100.00;100609.91;5047307;28;20032;-80
2023/12/29 06:04:00;;;;;;;47.35;25.35;;;;;;;-1.26;100.00;100619.66;5047295;28;20116;-80
2023/12/29 06:06:25;;;;;;;51.90;25.77;;;;;;;-1.14;100.00;100606.53;5048635;28;20484;-78
2023/12/29 06:08:51;;;;;;;40.20;21.55;;;;;;;-1.27;100.00;100612.78;5049167;28;20484;-79
2023/12/29 06:11:17;;;;;;;33.97;19.15;;;;;;;-0.93;98.52;100606.47;5047323;28;20021;-79
2023/12/29 06:13:42;;;;;;;45.75;22.45;;;;;;;-0.45;97.42;100635.47;5047242;28;20021;-79
2023/12/29 06:16:08;;;;;;;44.05;22.45;;;;;;;-0.14;95.05;100639.81;5029285;28;20072;-79
2023/12/29 06:18:33;;;;;;;47.88;27.50;;;;;;;-0.72;98.76;100638.66;5049263;28;20025;-80
2023/12/29 06:21:01;;;;;;;58.22;32.30;;;;;;;-0.58;100.00;100650.59;5029224;28;20029;-79
2023/12/29 06:23:26;;;;;;;44.13;27.23;;;;;;;-0.17;96.91;100654.03;5047014;28;20040;-79
2023/12/29 06:25:52;;;;;;;62.33;34.13;;;;;;;-0.15;97.82;100654.72;5029014;28;20096;-79
2023/12/29 06:28:17;;;;;;;50.58;28.33;;;;;;;-0.49;99.51;100660.28;5055806;28;20063;-79
2023/12/29 06:30:42;;;;;;;39.20;22.73;;;;;;;-1.10;100.00;100644.56;5048702;28;20158;-80
2023/12/29 06:33:08;;;;;;;35.03;18.55;;;;;;;-0.91;100.00;100664.78;5048927;28;20070;-80
2023/12/29 06:35:33;;;;;;;36.75;20.25;;;;;;;-0.90;100.00;100641.09;5066655;28;20020;-79
2023/12/29 06:37:59;;;;;;;34.90;19.88;;;;;;;-0.33;99.04;100648.47;5063671;28;20036;-79
2023/12/29 06:40:24;;;;;;;40.75;21.55;;;;;;;-0.41;99.01;100644.72;5048770;28;20125;-79
2023/12/29 06:42:50;;;;;;;44.40;24.05;;;;;;;-0.04;99.52;100659.84;5049155;28;20089;-80
2023/12/29 06:45:15;;;;;;;42.60;25.75;;;;;;;-0.16;99.86;100653.06;5066811;28;20073;-79
2023/12/29 06:47:41;;;;;;;37.85;22.40;;;;;;;-0.56;100.00;100614.59;5057855;28;20056;-79
2023/12/29 06:50:07;;;;;;;36.67;18.77;;;;;;;-0.28;100.00;100638.41;5046489;28;20032;-79
2023/12/29 06:52:33;;;;;;;39.25;20.88;;;;;;;-0.39;100.00;100635.91;5046160;28;20127;-80
2023/12/29 06:55:00;;;;;;;36.38;20.02;;;;;;;0.02;100.00;100648.00;5027989;28;20052;-80
2023/12/29 06:57:25;;;;;;;35.28;19.88;;;;;;;0.15;100.00;100643.31;5047891;28;20058;-79
2023/12/29 06:59:51;;;;;;;37.78;21.60;;;;;;;0.75;99.18;100666.75;5032235;28;20486;-79
2023/12/29 07:02:16;;;;;;;37.38;20.30;;;;;;;0.45;99.80;100640.69;5050061;28;20025;-80
2023/12/29 07:04:43;;;;;;;33.45;21.15;;;;;;;0.57;100.00;100663.19;5049294;28;20025;-79
2023/12/29 07:07:08;;;;;;;40.72;21.08;;;;;;;0.74;100.00;100644.13;5049541;28;20417;-79
2023/12/29 07:09:33;;;;;;;34.05;20.52;;;;;;;0.90;100.00;100642.69;5033031;28;20505;-79
2023/12/29 07:11:59;;;;;;;36.47;20.63;;;;;;;0.78;100.00;100619.25;5032002;28;20048;-80
2023/12/29 07:14:24;;;;;;;40.90;21.27;;;;;;;1.20;100.00;100628.50;5031975;28;20033;-79
2023/12/29 07:16:50;;;;;;;48.53;24.20;;;;;;;1.30;99.04;100624.03;5049972;28;20036;-79
2023/12/29 07:19:15;;;;;;;49.75;25.30;;;;;;;1.23;100.00;100628.22;5064348;28;20100;-80
2023/12/29 07:21:40;;;;;;;44.95;23.40;;;;;;;1.65;99.30;100642.69;5069966;28;20028;-79
2023/12/29 07:24:06;;;;;;;40.15;25.10;;;;;;;2.00;97.21;100658.56;5069784;28;20081;-80
2023/12/29 07:26:34;;;;;;;54.53;27.80;;;;;;;1.93;97.14;100640.88;5051786;28;20499;-79
2023/12/29 07:29:00;;;;;;;;;;;;;;;2.31;96.75;100665.25;5055474;28;20025;-78
2023/12/29 07:31:25;;;;;;;40.65;20.95;;;;;;;2.59;95.15;100666.00;5031852;28;19915;-78
2023/12/29 07:33:50;;;;;;;90.18;32.20;;;;;;;2.48;96.53;100656.53;5049724;28;20167;-78
2023/12/29 07:36:16;;;;;;;58.15;26.02;;;;;;;2.52;96.31;100638.63;5031684;28;20123;-79
2023/12/29 07:38:42;;;;;;;36.97;20.70;;;;;;;2.82;94.03;100634.75;5052092;28;20033;-78
2023/12/29 07:41:08;;;;;;;37.22;21.52;;;;;;;2.86;94.20;100625.56;5049409;28;20036;-79
2023/12/29 07:43:35;;;;;;;34.22;19.73;;;;;;;2.74;95.63;100624.16;5031801;28;20036;-78
2023/12/29 07:46:01;;;;;;;31.65;20.63;;;;;;;2.85;96.79;100628.34;5049582;28;20125;-79
2023/12/29 07:48:26;;;;;;;32.83;20.63;;;;;;;3.26;95.66;100655.75;5051749;28;20067;-78
2023/12/29 07:50:52;;;;;;;38.42;21.73;;;;;;;3.32;95.94;100638.50;5049034;28;20025;-78
2023/12/29 07:53:17;;;;;;;41.35;21.92;;;;;;;3.50;95.29;100630.50;5048508;28;20032;-77
2023/12/29 07:55:43;;;;;;;54.47;31.70;;;;;;;4.02;92.87;100651.41;5048976;28;20021;-78
2023/12/29 07:58:10;;;;;;;39.53;21.67;;;;;;;4.54;88.05;100660.91;5033123;28;20021;-78
2023/12/29 08:00:36;;;;;;;41.05;23.38;;;;;;;4.32;88.13;100642.06;5030654;28;20040;-78
2023/12/29 08:03:01;;;;;;;39.05;21.80;;;;;;;3.86;91.70;100639.00;5030670;28;20021;-78
2023/12/29 08:05:27;;;;;;;32.78;20.90;;;;;;;4.12;92.53;100662.66;5048660;28;20053;-78
2023/12/29 08:07:52;;;;;;;33.92;21.40;;;;;;;3.93;93.74;100658.50;5051807;28;20057;-77
2023/12/29 08:10:17;;;;;;;34.85;21.92;;;;;;;4.18;92.45;100655.91;5029978;28;20025;-78
2023/12/29 08:12:43;;;;;;;38.38;21.70;;;;;;;4.48;90.42;100643.09;5049022;28;20025;-78
2023/12/29 08:15:08;;;;;;;35.00;21.30;;;;;;;4.80;88.35;100661.56;5048858;28;20402;-78
2023/12/29 08:17:34;;;;;;;32.95;20.85;;;;;;;5.14;86.48;100651.75;5048599;28;20429;-78
2023/12/29 08:19:59;;;;;;;35.70;21.38;;;;;;;5.29;86.85;100675.69;5048728;28;20410;-78
2023/12/29 08:22:24;;;;;;;34.13;20.42;;;;;;;5.02;86.74;100632.78;5048621;28;20021;-77
2023/12/29 08:24:50;;;;;;;37.30;21.45;;;;;;;5.42;84.26;100670.69;5048774;28;20410;-78
2023/12/29 08:27:22;;;;;;;34.78;20.60;;;;;;;5.76;82.02;100659.81;5048804;28;20029;-77
2023/12/29 08:29:48;;;;;;;33.88;23.17;;;;;;;5.91;81.82;100659.91;5046685;28;20565;-78
2023/12/29 09:10:38;;;;;;;35.58;24.00;;;;;;;7.55;77.25;100642.59;5118845;22;20722;-79
2023/12/29 09:13:04;;;;;;;36.35;22.35;;;;;;;7.73;75.90;100641.38;5032450;28;1317710;-78
2023/12/29 09:15:29;;;;;;;36.05;23.60;;;;;;;7.87;75.12;100623.75;5066140;28;20048;-78
2023/12/29 09:17:55;;;;;;;34.65;23.35;;;;;;;8.13;74.17;100639.16;5064720;28;20400;-79
2023/12/29 09:20:20;;;;;;;40.95;25.35;;;;;;;7.80;74.91;100599.78;5065876;28;20020;-78
2023/12/29 09:22:45;;;;;;;31.77;22.95;;;;;;;8.09;73.76;100598.03;5081573;28;20081;-78
2023/12/29 09:25:11;;;;;;;29.17;19.63;;;;;;;8.42;71.68;100617.81;5085928;28;20105;-78
2023/12/29 09:27:36;;;;;;;34.10;20.65;;;;;;;8.45;71.83;100636.03;5067284;28;20067;-78
2023/12/29 09:30:03;;;;;;;32.83;22.30;;;;;;;8.92;70.09;100635.59;5067573;28;20020;-78
2023/12/29 09:32:29;;;;;;;30.05;20.23;;;;;;;9.22;69.52;100633.53;5085271;28;20016;-78
2023/12/29 09:34:54;;;;;;;38.03;25.98;;;;;;;9.32;67.38;100612.72;5085899;28;20043;-78
2023/12/29 09:37:20;;;;;;;31.77;21.77;;;;;;;9.59;66.38;100596.84;5085636;28;20411;-78
2023/12/29 09:39:45;;;;;;;35.05;21.73;;;;;;;9.80;65.20;100617.19;5085523;28;20029;-78
2023/12/29 09:42:19;;;;;;;36.13;23.95;;;;;;;9.79;65.48;100612.91;5066746;28;20054;-78
2023/12/29 09:44:49;;;;;;;44.13;34.20;;;;;;;10.40;63.57;100599.53;5085665;28;20024;-78
2023/12/29 09:47:19;;;;;;;35.00;24.92;;;;;;;10.64;61.73;100605.25;5085223;28;20028;-78
2023/12/29 09:49:45;;;;;;;34.60;20.50;;;;;;;10.54;61.94;100615.50;5085545;28;20501;-78
2023/12/29 09:52:13;;;;;;;34.70;23.73;;;;;;;11.11;60.64;100613.19;5066322;28;20033;-78
2023/12/29 09:54:39;;;;;;;31.13;21.30;;;;;;;11.28;58.44;100598.38;5085082;28;20039;-79
2023/12/29 09:57:05;;;;;;;39.08;22.55;;;;;;;11.29;61.47;100601.88;5066735;28;20078;-78
2023/12/29 09:59:35;;;;;;;136.05;53.35;;;;;;;11.77;59.23;100599.63;5085124;28;20028;-79
2023/12/29 10:02:03;;;;;;;127.60;85.93;;;;;;;12.12;57.20;100590.41;5084623;28;20078;-78
2023/12/29 10:04:29;;;;;;;40.53;25.15;;;;;;;12.29;56.48;100577.31;5083865;28;20079;-79
2023/12/29 10:06:56;;;;;;;40.28;26.67;;;;;;;12.20;56.18;100574.91;5084997;28;20050;-78
2023/12/29 10:09:23;;;;;;;42.45;24.63;;;;;;;12.60;54.32;100597.84;5084438;28;20024;-78
2023/12/29 10:11:50;;;;;;;55.97;35.88;;;;;;;12.55;54.56;100573.63;5083939;28;20135;-77
2023/12/29 10:14:30;;;;;;;101.03;50.83;;;;;;;12.74;54.03;100582.47;5084454;28;20024;-78
2023/12/29 10:17:47;;;;;;;51.50;29.85;;;;;;;13.03;54.60;100584.44;5084828;28;20108;-78
2023/12/29 10:20:27;;;;;;;256.67;134.57;;;;;;;13.29;52.93;100558.44;5071684;28;20034;-78
2023/12/29 10:23:16;;;;;;;65.20;37.72;;;;;;;13.92;50.49;100573.28;5052633;28;20105;-78
2023/12/29 10:25:42;;;;;;;49.75;29.38;;;;;;;13.91;50.44;100571.63;5070738;28;20028;-77
2023/12/29 10:28:09;;;;;;;35.08;26.85;;;;;;;14.10;48.43;100566.22;5070741;28;20055;-78
2023/12/29 10:30:35;;;;;;;24.95;15.90;;;;;;;13.89;48.74;100551.47;5070725;28;20103;-78
2023/12/29 10:33:01;;;;;;;46.47;22.58;;;;;;;13.89;48.76;100549.59;5070275;28;20173;-77
2023/12/29 10:35:26;;;;;;;168.05;69.13;;;;;;;14.00;48.61;100521.19;5070851;28;20025;-83
2023/12/29 10:37:52;;;;;;;29.33;17.50;;;;;;;14.05;47.28;100530.16;5071428;28;21109;-78
2023/12/29 10:40:18;;;;;;;257.92;104.45;;;;;;;14.59;46.60;100534.69;5070530;28;20078;-78
2023/12/29 10:42:52;;;;;;;38.35;21.02;;;;;;;15.15;45.32;100527.84;5052484;28;20139;-78
2023/12/29 10:45:18;;;;;;;158.55;59.50;;;;;;;15.09;44.69;100482.31;5071248;28;20031;-78
2023/12/29 10:47:44;;;;;;;74.25;34.50;;;;;;;15.63;43.78;100518.56;5070588;28;20036;-78
2023/12/29 10:50:09;;;;;;;71.88;33.63;;;;;;;15.05;43.62;100506.13;5052704;28;20025;-78
2023/12/29 10:52:37;;;;;;;36.78;17.13;;;;;;;15.57;43.64;100507.94;5070165;28;20412;-78
2023/12/29 10:55:07;;;;;;;30.02;19.73;;;;;;;15.18;44.62;100513.94;5070681;28;20032;-78
2023/12/29 10:57:33;;;;;;;23.38;17.63;;;;;;;15.44;42.88;100517.09;5070454;28;20043;-78
2023/12/29 11:00:02;;;;;;;30.10;18.80;;;;;;;15.53;42.29;100507.63;5070288;28;20029;-78
2023/12/29 11:02:28;;;;;;;20.38;10.63;;;;;;;15.52;41.10;100503.28;5070776;28;20123;-78
2023/12/29 11:05:04;;;;;;;32.50;16.23;;;;;;;16.17;40.38;100515.44;5070550;28;20040;-77
2023/12/29 11:07:38;;;;;;;32.67;16.55;;;;;;;16.83;37.72;100504.84;5071125;28;20042;-78
2023/12/29 11:10:05;;;;;;;19.80;10.95;;;;;;;16.75;38.06;100486.41;5052699;28;20044;-78
2023/12/29 11:12:33;;;;;;;16.37;9.73;;;;;;;17.39;37.57;100493.13;5069776;28;20044;-78
2023/12/29 11:15:01;;;;;;;21.98;14.27;;;;;;;17.19;36.93;100491.00;5065669;28;20286;-79
2023/12/29 11:17:29;;;;;;;28.88;17.95;;;;;;;17.74;37.51;100498.03;5052171;28;20377;-79
2023/12/29 11:19:55;;;;;;;26.65;17.15;;;;;;;17.82;36.44;100491.38;5070099;28;20032;-79
2023/12/29 11:22:22;;;;;;;35.72;21.40;;;;;;;17.98;36.08;100482.38;5070658;28;20029;-78
2023/12/29 11:24:48;;;;;;;22.08;12.48;;;;;;;18.03;36.00;100474.28;5068535;28;20090;-78
2023/12/29 11:27:15;;;;;;;18.95;12.27;;;;;;;18.16;35.29;100474.94;5051817;28;20040;-79
2023/12/29 11:29:45;;;;;;;22.40;13.85;;;;;;;17.91;36.94;100476.38;5069962;28;20106;-79
2023/12/29 11:32:26;;;;;;;24.88;15.13;;;;;;;18.26;35.67;100456.91;5069192;28;20028;-81
2023/12/29 11:35:00;;;;;;;26.27;16.50;;;;;;;18.71;34.63;100462.81;5069472;28;20033;-78
2023/12/29 11:37:56;;;;;;;29.30;16.63;;;;;;;18.90;34.40;100475.91;5069804;28;20025;-78
2023/12/29 11:40:41;;;;;;;17.40;11.77;;;;;;;19.57;32.86;100475.00;5051617;28;20033;-78
2023/12/29 11:43:12;;;;;;;31.27;15.20;;;;;;;19.42;33.11;100451.44;5069091;28;20024;-78
2023/12/29 11:45:39;;;;;;;17.50;12.60;;;;;;;19.99;32.45;100455.03;5069525;28;20150;-78
2023/12/29 11:48:04;;;;;;;12.90;8.00;;;;;;;19.75;31.80;100459.38;5069423;28;20035;-78
2023/12/29 11:50:36;;;;;;;12.63;7.72;;;;;;;20.17;31.38;100471.81;5069448;28;20028;-79